1966 BETTY (1966234N18169)


On this page: IBTrACS data - Map and Plots - Positions - Intensities - Original source data

Summary

Start Aug 21
End Sep 4
Basin WP
LMI 60 kt
Sources jtwc_wp
tokyo
cma
hko
td9636
td9635
ds824_wp
In WMO? Yes
Previous storm 1966 FAITH (NA)
Previous in basin 1966 WINNIE (WP)
Concurrent storms 1966 DOLORES (EP)
1966 VIOLA (WP)
1966 WINNIE (WP)
1966 FAITH (NA)
1966 BETTY (WP)
1966 EILEEN (EP)
1966 ALICE (WP)
1966 CORA (WP)
1966 19W (WP)
1966 20W (WP)
1966 GRETA (NA)
1966 09B (NI)
1966 DORIS (WP)
Next in basin 1966 ALICE (WP)
Next storm 1966 EILEEN (EP)

top of page IBTrACS Data: File Access

No storm imagery available

top of page Plots:

Map of storm track will not appear if FTP is down
Time series of cyclone Maximum Sustained Wind will not appear if FTP is down
Time series of cyclone Minimum Central Pressure will not appear if FTP is down

top of page Track Data:Position

jtwc_wp tokyo cma hko td9636 td9635 ds824_wp
Date Lat Lon Lat Lon Lat Lon Lat Lon Lat Lon Lat Lon Lat Lon
1966-08-21 12:00:00 18.0 169.0 18.0 169.0
1966-08-21 18:00:00 18.3 167.0 18.3 167.0
1966-08-22 00:00:00 19.0 164.8 19.0 164.8
1966-08-22 06:00:00 19.8 162.5 19.8 162.5
1966-08-22 12:00:00 20.3 159.6 20.3 159.6
1966-08-22 18:00:00 21.0 157.0 21.0 157.0
1966-08-23 00:00:00 21.5 155.0 21.5 155.0
1966-08-23 06:00:00 21.9 153.5 21.7 153.7
1966-08-23 12:00:00 21.9 152.3 21.8 152.3
1966-08-23 18:00:00 21.9 151.1 21.9 151.1
1966-08-24 00:00:00 22.1 149.8 22.1 149.8
1966-08-24 06:00:00 23.0 148.5 23.0 148.5
1966-08-24 12:00:00 24.0 147.1 24.0 147.1
1966-08-24 18:00:00 25.0 146.0 25.0 146.0
1966-08-25 00:00:00 26.4 145.6 25.8 144.8
1966-08-25 06:00:00 27.0 143.5 27.0 143.3
1966-08-25 12:00:00 28.0 142.5 28.0 142.6
1966-08-25 18:00:00 29.0 141.0 28.8 140.7
1966-08-26 00:00:00 29.0 139.0 29.0 139.0
1966-08-26 06:00:00 28.8 137.6 28.7 137.5
1966-08-26 12:00:00 28.0 136.4 28.3 136.7
1966-08-26 18:00:00 28.0 135.0 28.0 135.5
1966-08-27 00:00:00 28.0 134.0 28.0 134.0
1966-08-27 06:00:00 28.0 133.0 28.0 133.0
1966-08-27 12:00:00 28.5 131.8 28.2 131.8
jtwc_wp tokyo cma hko td9636 td9635 ds824_wp
1966-08-27 18:00:00 28.8 130.6 28.5 130.6
1966-08-28 00:00:00 29.1 129.5 29.0 129.5
1966-08-28 06:00:00 29.0 128.0 29.3 128.3
1966-08-28 12:00:00 29.5 127.4 29.7 127.7
1966-08-28 18:00:00 30.4 127.0 30.3 127.0
1966-08-29 00:00:00 31.1 126.7 31.1 126.7
1966-08-29 06:00:00 31.7 126.5 31.7 126.3
1966-08-29 12:00:00 32.0 126.2 32.3 126.2 32.3 126.1 32.0 126.2 32.0 126.2 32.0 126.2 32.0 126.2
1966-08-29 18:00:00 32.8 126.2 33.0 126.2 33.0 126.1 32.8 126.2 32.8 126.2 32.8 126.2 32.8 126.2
1966-08-30 00:00:00 33.7 126.3 33.7 126.2 33.7 126.2 33.6 126.2 33.7 126.3 33.7 126.3 33.7 126.3
1966-08-30 06:00:00 34.5 126.5 34.6 126.7 34.3 126.5 35.2 126.7 34.5 126.6 34.5 126.5 34.5 126.5
1966-08-30 12:00:00 35.2 126.8 35.2 127.2 34.8 126.9 35.8 127.3 35.2 126.8 35.2 126.8 35.2 126.8
1966-08-30 18:00:00 35.8 127.5 35.6 127.8 35.4 127.5 35.8 127.5 35.8 127.5
1966-08-31 00:00:00 36.4 129.0 36.0 128.3
1966-08-31 06:00:00 37.0 130.0 36.9 129.6
1966-08-31 12:00:00 38.0 131.5 38.0 131.4
1966-08-31 18:00:00 39.0 132.8 38.8 133.0
1966-09-01 00:00:00 39.5 135.5 39.6 135.3
1966-09-01 06:00:00 40.4 138.2 40.0 138.5
1966-09-01 12:00:00 41.1 141.0 40.6 141.0
1966-09-01 18:00:00 41.5 144.0 41.9 144.0
1966-09-02 00:00:00 42.9 146.0 43.1 146.4
1966-09-02 06:00:00 44.0 149.0 44.0 149.0
1966-09-02 12:00:00 45.0 151.1 45.1 151.2
jtwc_wp tokyo cma hko td9636 td9635 ds824_wp
1966-09-02 18:00:00 47.0 154.0 47.0 154.0
1966-09-03 00:00:00 49.0 156.0 49.0 156.0
1966-09-03 06:00:00 50.2 158.8 50.2 158.8
1966-09-03 12:00:00 52.6 160.0 52.6 160.0
1966-09-03 18:00:00 54.3 162.8 54.3 162.8
1966-09-04 00:00:00 56.7 163.0
1966-09-04 06:00:00 58.4 167.0
1966-09-04 12:00:00 59.4 171.1
1966-09-04 18:00:00 60.0 175.3

top of pageTrack Data:Intensity

jtwc_wp tokyo cma hko td9636 td9635 ds824_wp
Date Wind Pres Wind Pres Wind Pres Wind Pres Wind Pres Wind Pres Wind Pres
1966-08-21 12:00:00 1008. 1008.
1966-08-21 18:00:00 1006. 1006.
1966-08-22 00:00:00 1006. 1006.
1966-08-22 06:00:00 1004. 1006.
1966-08-22 12:00:00 1006. 1006.
1966-08-22 18:00:00 1006. 1006.
1966-08-23 00:00:00 1008. 1008.
1966-08-23 06:00:00 1004. 1004.
1966-08-23 12:00:00 1006. 1004.
1966-08-23 18:00:00 1004. 1004.
1966-08-24 00:00:00 1006. 1006.
1966-08-24 06:00:00 1006. 1006.
1966-08-24 12:00:00 1006. 1006.
1966-08-24 18:00:00 1006. 1006.
1966-08-25 00:00:00 1006. 1006.
1966-08-25 06:00:00 1004. 1006.
1966-08-25 12:00:00 1004. 1008.
1966-08-25 18:00:00 1008. 1008.
1966-08-26 00:00:00 1008. 1008.
1966-08-26 06:00:00 1006. 1008.
1966-08-26 12:00:00 1008. 1008.
1966-08-26 18:00:00 1008. 1008.
1966-08-27 00:00:00 1008. 29. 1008.
1966-08-27 06:00:00 1008. 29. 1008.
1966-08-27 12:00:00 1008. 29. 1008.
jtwc_wp tokyo cma hko td9636 td9635 ds824_wp
1966-08-27 18:00:00 1007. 29. 1006.
1966-08-28 00:00:00 1008. 29. 1006.
1966-08-28 06:00:00 1004. 29. 1006.
1966-08-28 12:00:00 1000. 29. 1000.
1966-08-28 18:00:00 996. 39. 996.
1966-08-29 00:00:00 994. 39. 994.
1966-08-29 06:00:00 990. 49. 992.
1966-08-29 12:00:00 50. 988. 49. 988. 40. 988. 50. 50. 991. 50.
1966-08-29 18:00:00 60. 986. 49. 986. 45. 987. 50. 60. 987. 60.
1966-08-30 00:00:00 60. 988. 49. 988. 45. 986. 60. 60. 985. 60.
1966-08-30 06:00:00 50. 992. 49. 992. 40. 988. 60. 50. 987. 50.
1966-08-30 12:00:00 40. 994. 39. 994. 35. 994. 40. 40. 992. 40.
1966-08-30 18:00:00 30. 998. 29. 998. 30. 996. 30.
1966-08-31 00:00:00 1000. 29. 1000.
1966-08-31 06:00:00 1002. 29. 1002.
1966-08-31 12:00:00 1002. 23. 1002.
1966-08-31 18:00:00 1004. 23. 1004.
1966-09-01 00:00:00 1007. 23. 1007.
1966-09-01 06:00:00 1004. 23. 1004.
1966-09-01 12:00:00 1000. 29. 1000.
1966-09-01 18:00:00 1002. 23. 1002.
1966-09-02 00:00:00 1007. 23. 1004.
1966-09-02 06:00:00 1006. 23. 1004.
1966-09-02 12:00:00 1004. 23. 1004.
jtwc_wp tokyo cma hko td9636 td9635 ds824_wp
1966-09-02 18:00:00 1004. 23. 1004.
1966-09-03 00:00:00 1004. 23. 1004.
1966-09-03 06:00:00 1006. 23. 1006.
1966-09-03 12:00:00 1007. 23. 1006.
1966-09-03 18:00:00 1006. 23. 1006.
1966-09-04 00:00:00 1002.
1966-09-04 06:00:00 1004.
1966-09-04 12:00:00 1006.
1966-09-04 18:00:00 1006.

top of page Links to source data

Source Source file Format
jtwc_wp bwp161966.txt ATCF
tokyo bst_all.txt:Line=14907:BETTY:6617 JMA text table
cma CH1966BST.txt:Storm=19:Betty CMA text table
hko tc-besttrack-data-current.txt:Line=4143:BETTY HKO Text table
td9636 cons_worldwide_trop_cyclone_18710101-19891231-003:Line=21033 TD 9636
td9635 typhoons-analogs_19450101-19761231.corrected:Line=7197 TD 9635
ds824_wp w_npac.dat:566:BETTY HURDAT